createdAt,value
2023-05-03T00:00:30.263Z,99.90
2023-05-03T00:03:52.106Z,99.90
2023-05-03T00:07:15.031Z,99.90
2023-05-03T00:10:36.614Z,99.90
2023-05-03T00:13:58.199Z,99.90
2023-05-03T00:17:19.795Z,99.90
2023-05-03T00:20:44.413Z,99.90
2023-05-03T00:24:07.661Z,99.90
2023-05-03T00:27:29.260Z,99.90
2023-05-03T00:30:50.890Z,99.90
2023-05-03T00:34:12.511Z,99.90
2023-05-03T00:37:34.088Z,99.90
2023-05-03T00:40:57.001Z,99.90
2023-05-03T00:44:18.745Z,99.90
2023-05-03T00:47:41.121Z,99.90
2023-05-03T00:51:03.609Z,99.90
2023-05-03T00:54:27.047Z,99.90
2023-05-03T00:57:49.969Z,99.90
2023-05-03T01:01:11.796Z,99.90
2023-05-03T01:04:33.412Z,99.90
2023-05-03T01:07:59.749Z,99.90
2023-05-03T01:11:23.867Z,99.90
2023-05-03T01:14:53.122Z,99.90
2023-05-03T01:18:16.088Z,99.90
2023-05-03T01:21:37.720Z,99.90
2023-05-03T01:25:06.792Z,99.90
2023-05-03T01:28:28.596Z,99.90
2023-05-03T01:31:53.259Z,99.90
2023-05-03T01:35:17.864Z,99.90
2023-05-03T01:38:39.599Z,99.90
2023-05-03T01:42:03.796Z,99.90
2023-05-03T01:45:25.731Z,99.90
2023-05-03T01:48:47.540Z,99.90
2023-05-03T01:52:09.931Z,99.90
2023-05-03T01:55:31.645Z,99.90
2023-05-03T01:58:54.689Z,99.90
2023-05-03T02:02:16.400Z,99.90
2023-05-03T02:05:38.291Z,99.90
2023-05-03T02:09:00.023Z,99.90
2023-05-03T02:12:22.653Z,99.90
2023-05-03T02:15:45.947Z,99.90
2023-05-03T02:19:07.527Z,99.90
2023-05-03T02:22:29.112Z,99.90
2023-05-03T02:25:50.731Z,99.90
2023-05-03T02:29:12.279Z,99.90
2023-05-03T02:32:35.286Z,99.90
2023-05-03T02:35:56.958Z,99.90
2023-05-03T02:39:18.519Z,99.90
2023-05-03T02:46:02.267Z,99.90
2023-05-03T02:49:25.294Z,99.90
2023-05-03T02:52:47.514Z,99.90
2023-05-03T02:56:12.798Z,99.90
2023-05-03T02:59:36.880Z,99.90
2023-05-03T03:03:02.580Z,99.90
2023-05-03T03:06:26.235Z,99.90
2023-05-03T03:09:48.119Z,99.90
2023-05-03T03:13:09.682Z,99.90
2023-05-03T03:16:31.455Z,99.90
2023-05-03T03:19:53.063Z,99.90
2023-05-03T03:23:15.988Z,99.90
2023-05-03T03:26:37.572Z,99.90
2023-05-03T03:29:59.224Z,99.90
2023-05-03T03:33:22.214Z,99.90
2023-05-03T03:36:45.954Z,99.90
2023-05-03T03:40:09.789Z,99.90
2023-05-03T03:43:31.395Z,99.90
2023-05-03T03:46:53.924Z,99.90
2023-05-03T03:50:15.787Z,99.90
2023-05-03T03:53:37.388Z,99.90
2023-05-03T03:57:00.324Z,99.90
2023-05-03T04:00:22.022Z,99.90
2023-05-03T04:03:45.065Z,99.90
2023-05-03T04:07:07.728Z,99.90
2023-05-03T04:10:30.983Z,99.90
2023-05-03T04:13:53.961Z,99.90
2023-05-03T04:17:15.568Z,99.90
2023-05-03T04:20:42.234Z,99.90
2023-05-03T04:24:04.626Z,99.90
2023-05-03T04:27:26.205Z,99.90
2023-05-03T04:30:52.990Z,99.90
2023-05-03T04:34:14.727Z,99.90
2023-05-03T04:37:36.662Z,99.90
2023-05-03T04:40:58.272Z,99.90
2023-05-03T04:44:19.934Z,99.90
2023-05-03T04:47:42.900Z,99.90
2023-05-03T04:51:04.852Z,99.90
2023-05-03T04:54:26.637Z,99.90
2023-05-03T04:57:48.360Z,99.90
2023-05-03T05:01:09.971Z,99.90
2023-05-03T05:04:32.895Z,99.90
2023-05-03T05:07:54.464Z,99.90
2023-05-03T05:11:16.069Z,99.90
2023-05-03T05:14:37.662Z,99.90
2023-05-03T05:17:59.378Z,99.90
2023-05-03T05:21:22.360Z,99.90
2023-05-03T05:24:43.948Z,99.90
2023-05-03T05:28:05.533Z,99.90
2023-05-03T05:31:27.161Z,99.90
2023-05-03T05:34:48.850Z,99.90
2023-05-03T05:38:11.950Z,99.90
2023-05-03T05:41:33.599Z,99.90
2023-05-03T05:44:55.152Z,99.90
2023-05-03T05:48:16.814Z,99.90
2023-05-03T05:51:38.840Z,99.90
2023-05-03T05:55:01.801Z,99.90
2023-05-03T05:58:23.398Z,99.90
2023-05-03T06:01:45.092Z,99.90
2023-05-03T06:05:07.778Z,99.90
2023-05-03T06:08:29.677Z,99.90
2023-05-03T06:11:52.624Z,99.90
2023-05-03T06:15:14.246Z,99.90
2023-05-03T06:18:35.857Z,99.90
2023-05-03T06:21:57.427Z,99.90
2023-05-03T06:25:19.025Z,99.90
2023-05-03T06:28:41.956Z,99.90
2023-05-03T06:32:03.626Z,99.90
2023-05-03T06:35:25.214Z,99.90
2023-05-03T06:38:47.790Z,99.90
2023-05-03T06:42:09.846Z,99.90
2023-05-03T06:45:33.549Z,99.90
2023-05-03T06:48:55.421Z,99.90
2023-05-03T06:52:17.059Z,99.90
2023-05-03T06:55:38.627Z,99.90
2023-05-03T06:59:00.264Z,99.90
2023-05-03T07:02:23.247Z,99.90
2023-05-03T07:05:44.834Z,99.90
2023-05-03T07:09:06.458Z,97.60
2023-05-03T07:12:28.020Z,95.60
2023-05-03T07:15:50.079Z,95.40
2023-05-03T07:19:13.057Z,94.30
2023-05-03T07:22:34.628Z,93.10
2023-05-03T07:25:56.214Z,90.20
2023-05-03T07:29:17.817Z,90.30
2023-05-03T07:32:39.447Z,88.40
2023-05-03T07:36:02.541Z,85.60
2023-05-03T07:39:24.134Z,84.70
2023-05-03T07:42:45.717Z,84.60
2023-05-03T07:46:07.527Z,83.20
2023-05-03T07:49:29.159Z,83.80
2023-05-03T07:52:52.106Z,83.40
2023-05-03T07:56:13.686Z,82.00
2023-05-03T07:59:35.276Z,85.20
2023-05-03T08:02:57.135Z,89.60
2023-05-03T08:06:19.427Z,89.40
2023-05-03T08:09:42.994Z,92.10
2023-05-03T08:13:05.166Z,87.70
2023-05-03T08:16:26.913Z,86.80
2023-05-03T08:19:48.698Z,83.70
2023-05-03T08:23:10.980Z,80.90
2023-05-03T08:26:35.601Z,82.20
2023-05-03T08:29:57.615Z,79.60
2023-05-03T08:33:19.420Z,77.20
2023-05-03T08:36:42.201Z,73.00
2023-05-03T08:40:04.903Z,73.70
2023-05-03T08:43:29.032Z,73.10
2023-05-03T08:46:54.282Z,76.00
2023-05-03T08:50:16.203Z,75.30
2023-05-03T08:53:37.810Z,71.30
2023-05-03T08:56:59.399Z,75.00
2023-05-03T09:00:27.934Z,73.00
2023-05-03T09:03:50.214Z,72.80
2023-05-03T09:07:12.371Z,75.50
2023-05-03T09:10:36.888Z,79.20
2023-05-03T09:14:08.398Z,80.80
2023-05-03T09:17:31.387Z,77.70
2023-05-03T09:20:58.628Z,78.60
2023-05-03T09:24:22.137Z,78.60
2023-05-03T09:27:44.148Z,81.00
2023-05-03T09:31:07.332Z,78.40
2023-05-03T09:34:30.971Z,78.30
2023-05-03T09:37:52.827Z,82.20
2023-05-03T09:41:14.583Z,84.50
2023-05-03T09:44:40.433Z,78.20
2023-05-03T09:48:02.718Z,80.80
2023-05-03T09:51:30.640Z,80.00
2023-05-03T09:54:53.829Z,78.70
2023-05-03T09:58:15.443Z,79.70
2023-05-03T10:01:37.195Z,76.80
2023-05-03T10:04:58.807Z,78.10
2023-05-03T10:08:26.200Z,77.40
2023-05-03T10:11:48.465Z,80.20
2023-05-03T10:15:11.113Z,80.40
2023-05-03T10:18:35.997Z,78.70
2023-05-03T10:22:02.208Z,78.70
2023-05-03T10:25:25.553Z,81.20
2023-05-03T10:28:48.354Z,84.00
2023-05-03T10:32:28.587Z,83.40
2023-05-03T10:35:51.105Z,81.20
2023-05-03T10:39:14.191Z,81.00
2023-05-03T10:42:38.674Z,82.60
2023-05-03T10:46:00.915Z,86.10
2023-05-03T10:49:23.378Z,87.20
2023-05-03T10:52:45.401Z,88.10
2023-05-03T10:56:07.643Z,85.70
2023-05-03T10:59:45.840Z,87.30
2023-05-03T11:03:25.762Z,91.60
2023-05-03T11:06:47.432Z,87.60
2023-05-03T11:10:16.283Z,86.40
2023-05-03T11:13:37.997Z,88.00
2023-05-03T11:17:01.185Z,89.40
2023-05-03T11:20:25.298Z,89.10
2023-05-03T11:23:47.677Z,90.10
2023-05-03T11:27:11.093Z,90.40
2023-05-03T11:30:34.322Z,90.30
2023-05-03T11:33:57.351Z,90.60
2023-05-03T11:37:19.118Z,91.50
2023-05-03T11:40:41.460Z,87.50
2023-05-03T11:44:15.266Z,84.50
2023-05-03T11:47:38.417Z,87.70
2023-05-03T11:51:06.653Z,88.90
2023-05-03T11:54:28.247Z,88.40
2023-05-03T11:57:50.730Z,89.80
2023-05-03T12:01:13.103Z,87.80
2023-05-03T12:04:36.290Z,88.30
2023-05-03T12:08:00.053Z,86.40
2023-05-03T12:11:26.161Z,86.60
2023-05-03T12:14:57.741Z,86.70
2023-05-03T12:18:20.776Z,85.40
2023-05-03T12:21:46.964Z,80.20
2023-05-03T12:25:16.377Z,82.00
2023-05-03T12:28:38.300Z,84.60
2023-05-03T12:31:59.942Z,84.60
2023-05-03T12:35:22.183Z,83.20
2023-05-03T12:38:45.625Z,82.60
2023-05-03T12:42:09.790Z,79.90
2023-05-03T12:45:34.494Z,78.80
2023-05-03T12:49:00.215Z,78.60
2023-05-03T12:52:37.494Z,80.80
2023-05-03T12:56:00.553Z,83.10
2023-05-03T13:06:14.764Z,80.70
2023-05-03T13:13:20.726Z,80.20
2023-05-03T13:16:43.698Z,80.60
2023-05-03T13:20:06.321Z,79.40
2023-05-03T13:23:28.010Z,80.20
2023-05-03T13:26:51.307Z,80.20
2023-05-03T13:30:13.098Z,80.70
2023-05-03T13:33:36.056Z,78.70
2023-05-03T13:36:59.752Z,80.00
2023-05-03T13:40:21.332Z,81.10
2023-05-03T13:43:43.206Z,80.10
2023-05-03T13:47:06.700Z,79.50
2023-05-03T13:50:32.666Z,77.90
2023-05-03T13:53:55.105Z,78.30
2023-05-03T13:57:16.806Z,78.40
2023-05-03T14:00:38.440Z,79.50
2023-05-03T14:04:00.169Z,81.00
2023-05-03T14:07:23.123Z,81.00
2023-05-03T14:10:44.743Z,77.10
2023-05-03T14:14:06.396Z,76.20
2023-05-03T14:17:31.872Z,78.00
2023-05-03T14:20:53.806Z,78.00
2023-05-03T14:24:21.354Z,76.70
2023-05-03T14:27:43.700Z,75.70
2023-05-03T14:31:05.416Z,77.60
2023-05-03T14:34:27.030Z,77.20
2023-05-03T14:37:48.743Z,79.20
2023-05-03T14:41:11.668Z,79.00
2023-05-03T14:44:34.381Z,79.10
2023-05-03T14:47:56.978Z,79.10
2023-05-03T14:51:18.610Z,77.70
2023-05-03T14:54:43.884Z,77.60
2023-05-03T14:58:09.592Z,77.10
2023-05-03T15:01:32.861Z,75.70
2023-05-03T15:04:54.523Z,76.30
2023-05-03T15:08:18.200Z,75.50
2023-05-03T15:11:40.005Z,74.90
2023-05-03T15:15:05.247Z,76.50
2023-05-03T15:18:28.046Z,76.40
2023-05-03T15:21:51.164Z,75.20
2023-05-03T15:25:14.095Z,73.60
2023-05-03T15:28:36.294Z,74.60
2023-05-03T15:31:59.280Z,76.30
2023-05-03T15:35:25.329Z,75.20
2023-05-03T15:38:47.241Z,74.90
2023-05-03T15:42:08.816Z,74.80
2023-05-03T15:45:31.661Z,73.70
2023-05-03T15:48:55.335Z,74.90
2023-05-03T15:52:17.231Z,75.20
2023-05-03T15:55:38.885Z,76.50
2023-05-03T15:59:00.796Z,75.60
2023-05-03T16:02:22.532Z,75.40
2023-05-03T16:05:45.489Z,76.30
2023-05-03T16:09:08.463Z,76.30
2023-05-03T16:12:30.108Z,73.50
2023-05-03T16:15:51.850Z,74.30
2023-05-03T16:19:13.730Z,75.30
2023-05-03T16:22:37.925Z,75.90
2023-05-03T16:25:59.898Z,76.60
2023-05-03T16:29:21.581Z,77.80
2023-05-03T16:32:43.316Z,76.50
2023-05-03T16:36:05.972Z,77.30
2023-05-03T16:39:29.096Z,77.90
2023-05-03T16:42:51.428Z,77.70
2023-05-03T16:46:14.188Z,78.30
2023-05-03T16:49:36.157Z,78.70
2023-05-03T16:52:58.081Z,78.60
2023-05-03T16:56:21.475Z,79.40
2023-05-03T16:59:44.253Z,79.80
2023-05-03T17:03:07.402Z,79.20
2023-05-03T17:06:29.368Z,78.70
2023-05-03T17:09:50.967Z,80.00
2023-05-03T17:13:14.006Z,79.20
2023-05-03T17:16:40.002Z,80.10
2023-05-03T17:20:05.421Z,79.00
2023-05-03T17:23:30.644Z,80.20
2023-05-03T17:26:52.674Z,80.60
2023-05-03T17:30:17.775Z,80.40
2023-05-03T17:33:45.170Z,81.40
2023-05-03T17:37:07.122Z,81.80
2023-05-03T17:40:28.914Z,81.90
2023-05-03T17:43:51.571Z,82.60
2023-05-03T17:47:15.189Z,81.60
2023-05-03T17:50:36.833Z,82.30
2023-05-03T17:53:58.628Z,82.40
2023-05-03T17:57:20.216Z,83.50
2023-05-03T18:00:41.808Z,83.90
2023-05-03T18:04:04.921Z,84.10
2023-05-03T18:07:26.681Z,83.40
2023-05-03T18:10:48.300Z,84.00
2023-05-03T18:14:10.036Z,84.70
2023-05-03T18:17:31.768Z,85.50
2023-05-03T18:21:01.149Z,86.40
2023-05-03T18:24:23.049Z,85.70
2023-05-03T18:27:44.685Z,86.80
2023-05-03T18:31:06.305Z,86.80
2023-05-03T18:34:28.233Z,87.10
2023-05-03T18:37:51.262Z,87.50
2023-05-03T18:41:13.603Z,88.00
2023-05-03T18:44:38.248Z,88.60
2023-05-03T18:48:00.555Z,89.10
2023-05-03T18:51:22.582Z,89.70
2023-05-03T18:54:50.123Z,89.90
2023-05-03T18:58:12.081Z,90.20
2023-05-03T19:01:35.394Z,90.30
2023-05-03T19:04:57.702Z,90.60
2023-05-03T19:08:19.485Z,90.80
2023-05-03T19:11:42.631Z,90.90
2023-05-03T19:15:05.432Z,91.00
2023-05-03T19:18:28.411Z,91.10
2023-05-03T19:21:50.062Z,91.30
2023-05-03T19:25:11.666Z,91.40
2023-05-03T19:28:35.232Z,91.60
2023-05-03T19:31:57.445Z,91.50
2023-05-03T19:35:19.386Z,91.80
2023-05-03T19:38:41.543Z,91.60
2023-05-03T19:42:04.558Z,91.60
2023-05-03T19:45:31.661Z,91.60
2023-05-03T19:48:53.814Z,91.60
2023-05-03T19:52:16.916Z,91.60
2023-05-03T19:55:38.591Z,91.70
2023-05-03T19:59:01.470Z,91.70
2023-05-03T20:02:25.344Z,91.90
2023-05-03T20:05:47.254Z,92.00
2023-05-03T20:09:08.852Z,92.00
2023-05-03T20:12:30.889Z,92.20
2023-05-03T20:15:52.795Z,92.20
2023-05-03T20:19:15.827Z,92.40
2023-05-03T20:22:37.460Z,92.70
2023-05-03T20:25:59.030Z,93.10
2023-05-03T20:29:21.498Z,93.20
2023-05-03T20:32:43.260Z,93.30
2023-05-03T20:36:07.440Z,93.80
2023-05-03T20:39:29.024Z,93.90
2023-05-03T20:42:50.808Z,94.60
2023-05-03T20:46:12.432Z,94.50
2023-05-03T20:49:34.078Z,94.60
2023-05-03T20:52:57.021Z,94.60
2023-05-03T20:56:18.803Z,94.60
2023-05-03T20:59:41.573Z,94.80
2023-05-03T21:03:03.637Z,95.00
2023-05-03T21:06:25.745Z,94.90
2023-05-03T21:09:48.739Z,95.00
2023-05-03T21:13:10.650Z,95.10
2023-05-03T21:16:32.342Z,95.10
2023-05-03T21:19:53.941Z,95.20
2023-05-03T21:23:15.519Z,95.30
2023-05-03T21:26:38.464Z,95.70
2023-05-03T21:30:00.018Z,95.90
2023-05-03T21:33:21.739Z,96.20
2023-05-03T21:36:43.343Z,96.40
2023-05-03T21:40:05.695Z,96.60
2023-05-03T21:43:28.641Z,97.40
2023-05-03T21:46:50.342Z,97.80
2023-05-03T21:50:12.070Z,97.80
2023-05-03T21:53:33.658Z,98.30
2023-05-03T21:56:55.252Z,98.50
2023-05-03T22:00:18.544Z,98.10
2023-05-03T22:03:40.223Z,98.30
2023-05-03T22:07:01.852Z,98.70
2023-05-03T22:10:23.401Z,98.50
2023-05-03T22:14:03.086Z,98.40
2023-05-03T22:17:28.286Z,98.30
2023-05-03T22:20:49.988Z,98.20
2023-05-03T22:24:11.619Z,98.40
2023-05-03T22:27:33.184Z,98.80
2023-05-03T22:30:54.781Z,99.20
2023-05-03T22:34:17.754Z,99.80
2023-05-03T22:37:39.441Z,99.70
2023-05-03T22:41:01.021Z,99.90
2023-05-03T22:44:22.590Z,99.90
2023-05-03T22:47:44.179Z,99.90
2023-05-03T22:51:07.224Z,99.90
2023-05-03T22:54:28.807Z,99.90
2023-05-03T22:57:50.391Z,99.90
2023-05-03T23:01:12.103Z,99.90
2023-05-03T23:04:33.714Z,99.90
2023-05-03T23:07:56.615Z,99.90
2023-05-03T23:11:18.200Z,99.90
2023-05-03T23:14:39.888Z,99.90
2023-05-03T23:18:01.511Z,99.90
2023-05-03T23:21:23.140Z,99.90
2023-05-03T23:24:46.063Z,99.90
2023-05-03T23:28:07.781Z,99.90
2023-05-03T23:31:31.627Z,99.90
2023-05-03T23:34:55.557Z,99.90
2023-05-03T23:38:17.151Z,99.90
2023-05-03T23:41:40.082Z,99.90
2023-05-03T23:45:01.651Z,99.90
2023-05-03T23:48:23.246Z,99.90
2023-05-03T23:51:45.042Z,99.90
2023-05-03T23:55:07.462Z,99.90
2023-05-03T23:58:30.383Z,99.90
